Time;durP1;ratioP1;P1;durP2;ratioP2;P2;SDS_P1;SDS_P2;PMS_P1;PMS_P2;Temp;Humidity;BMP_temperature;BMP_pressure;BME280_temperature;BME280_humidity;BME280_pressure;Samples;Min_cycle;Max_cycle;Signal;HPM_P1;HPM_P2
2022/11/24 00:02:11;;;;;;;;;;;;;;;1.39;78.02;99900.00;5046530;28;19952;-30
2022/11/24 00:04:37;;;;;;;;;;;;;;;1.39;78.03;99898.28;5050897;28;19920;-30
2022/11/24 00:07:02;;;;;;;;;;;;;;;1.38;78.11;99896.53;5061450;28;19916;-30
2022/11/24 00:09:27;;;;;;;;;;;;;;;1.35;77.99;99899.06;5055286;28;19971;-30
2022/11/24 00:11:53;;;;;;;;;;;;;;;1.34;78.24;99899.06;5047753;28;19916;-30
2022/11/24 00:14:18;;;;;;;;;;;;;;;1.30;78.15;99887.72;5049196;28;19934;-30
2022/11/24 00:16:44;;;;;;;;;;;;;;;1.30;78.25;99895.50;5059097;28;19916;-30
2022/11/24 00:19:09;;;;;;;;;;;;;;;1.33;78.47;99894.72;5056078;28;20282;-30
2022/11/24 00:21:35;;;;;;;;;;;;;;;1.30;78.29;99890.31;5037369;28;20291;-30
2022/11/24 00:24:00;;;;;;;;;;;;;;;1.30;78.04;99894.66;5055567;28;19917;-30
2022/11/24 00:26:26;;;;;;;;;;;;;;;1.29;78.58;99888.56;5056307;28;20362;-30
2022/11/24 00:28:52;;;;;;;;;;;;;;;1.28;78.40;99895.50;5051577;28;19928;-30
2022/11/24 00:31:18;;;;;;;;;;;;;;;1.28;78.08;99902.41;5058504;28;20409;-30
2022/11/24 00:33:44;;;;;;;;;;;;;;;1.27;78.39;99898.94;5027914;28;19917;-30
2022/11/24 00:36:10;;;;;;;;;;;;;;;1.27;78.23;99895.47;5056850;28;19924;-30
2022/11/24 00:38:35;;;;;;;;;;;;;;;1.29;78.21;99904.16;5043828;28;20371;-30
2022/11/24 00:41:00;;;;;;;;;;;;;;;1.28;78.59;99912.81;5038099;28;20003;-30
2022/11/24 00:43:25;;;;;;;;;;;;;;;1.28;78.38;99915.41;5054064;28;19917;-30
2022/11/24 00:45:50;;;;;;;;;;;;;;;1.28;78.00;99911.09;5042633;28;19920;-30
2022/11/24 00:48:16;;;;;;;;;;;;;;;1.28;78.48;99912.81;5055402;28;19917;-30
2022/11/24 00:50:41;;;;;;;;;;;;;;;1.26;78.22;99919.69;5062935;28;20089;-30
2022/11/24 00:53:06;;;;;;;;;;;;;;;1.25;78.26;99923.16;5054557;28;19920;-30
2022/11/24 00:55:31;;;;;;;;;;;;;;;1.23;78.50;99930.91;5031743;28;19924;-30
2022/11/24 00:57:56;;;;;;;;;;;;;;;1.26;78.10;99922.28;5043441;28;19925;-30
2022/11/24 01:00:22;;;;;;;;;;;;;;;1.25;78.41;99933.53;5054622;28;19921;-29
2022/11/24 01:02:47;;;;;;;;;;;;;;;1.25;78.19;99933.53;5054296;28;19917;-30
2022/11/24 01:05:12;;;;;;;;;;;;;;;1.25;78.41;99928.34;5058084;28;19958;-30
2022/11/24 01:07:37;;;;;;;;;;;;;;;1.26;78.16;99935.28;5050570;28;19952;-30
2022/11/24 01:10:03;;;;;;;;;;;;;;;1.25;78.44;99938.75;5063493;28;19951;-30
2022/11/24 01:12:29;;;;;;;;;;;;;;;1.26;78.25;99940.47;5044099;28;19999;-30
2022/11/24 01:14:54;;;;;;;;;;;;;;;1.26;78.25;99937.88;5060347;28;20011;-30
2022/11/24 01:17:19;;;;;;;;;;;;;;;1.27;78.34;99950.03;5047030;28;19943;-30
2022/11/24 01:19:48;;;;;;;;;;;;;;;1.27;78.44;99952.66;5057369;28;19942;-30
2022/11/24 01:22:13;;;;;;;;;;;;;;;1.27;78.72;99947.44;5027702;28;20489;-30
2022/11/24 01:24:38;;;;;;;;;;;;;;;1.26;78.32;99953.47;5032977;28;19917;-30
2022/11/24 01:27:04;;;;;;;;;;;;;;;1.27;78.67;99955.25;5061895;28;20449;-30
2022/11/24 01:29:29;;;;;;;;;;;;;;;1.25;78.73;99944.81;5060557;28;19916;-30
2022/11/24 01:31:54;;;;;;;;;;;;;;;1.26;78.58;99953.47;5054490;28;19924;-30
2022/11/24 01:34:19;;;;;;;;;;;;;;;1.29;78.39;99958.72;5052012;28;20042;-30
2022/11/24 01:36:45;;;;;;;;;;;;;;;1.29;78.59;99961.31;5032583;28;20014;-30
2022/11/24 01:39:10;;;;;;;;;;;;;;;1.28;78.65;99960.47;5051793;28;20346;-30
2022/11/24 01:41:35;;;;;;;;;;;;;;;1.31;78.62;99962.25;5059588;28;20343;-30
2022/11/24 01:44:18;;;;;;;;;;;;;;;1.32;78.91;99961.38;5053639;28;20435;-30
2022/11/24 01:46:43;;;;;;;;;;;;;;;1.32;78.72;99966.56;5061448;28;19916;-30
2022/11/24 01:49:18;;;;;;;;;;;;;;;1.35;78.67;99966.63;5040354;28;20303;-30
2022/11/24 01:51:48;;;;;;;;;;;;;;;1.36;78.66;99970.09;5053962;28;19917;-30
2022/11/24 01:54:15;;;;;;;;;;;;;;;1.36;78.75;99976.19;5049462;28;19924;-30
2022/11/24 01:56:41;;;;;;;;;;;;;;;1.38;78.73;99982.28;5042236;28;20023;-30
2022/11/24 01:59:06;;;;;;;;;;;;;;;1.39;78.78;99978.84;5060481;28;20455;-30
2022/11/24 02:01:32;;;;;;;;;;;;;;;1.40;78.93;99982.31;5043454;28;19916;-30
2022/11/24 02:03:57;;;;;;;;;;;;;;;1.40;78.63;99990.13;5061235;28;19921;-30
2022/11/24 02:06:23;;;;;;;;;;;;;;;1.40;78.92;99983.16;5053262;28;19921;-29
2022/11/24 02:08:51;;;;;;;;;;;;;;;1.41;78.77;99974.53;5058815;28;19916;-30
2022/11/24 02:11:16;;;;;;;;;;;;;;;1.42;78.69;99980.59;5042114;28;20418;-30
2022/11/24 02:13:41;;;;;;;;;;;;;;;1.45;79.02;99982.38;5046190;28;20003;-30
2022/11/24 02:16:07;;;;;;;;;;;;;;;1.45;78.75;99979.78;5041462;28;19963;-30
2022/11/24 02:18:32;;;;;;;;;;;;;;;1.46;78.75;99976.34;5046393;28;20376;-30
2022/11/24 02:20:57;;;;;;;;;;;;;;;1.46;78.92;99979.81;5046729;28;20401;-30
2022/11/24 02:23:30;;;;;;;;;;;;;;;1.46;78.98;99981.56;5046872;28;20383;-30
2022/11/24 02:26:14;;;;;;;;;;;;;;;1.48;78.71;99987.63;5043401;28;19917;-30
2022/11/24 02:28:40;;;;;;;;;;;;;;;1.48;78.76;99987.63;5064442;28;19991;-30
2022/11/24 02:31:05;;;;;;;;;;;;;;;1.48;78.75;99983.31;5065260;28;20321;-30
2022/11/24 02:33:30;;;;;;;;;;;;;;;1.48;79.09;99988.53;5057347;28;19924;-30
2022/11/24 02:35:55;;;;;;;;;;;;;;;1.49;79.04;99992.84;5065618;28;19940;-30
2022/11/24 02:38:30;;;;;;;;;;;;;;;1.51;79.14;99998.09;5059463;28;19925;-29
2022/11/24 02:40:56;;;;;;;;;;;;;;;1.52;79.01;99999.81;5063994;28;19916;-30
2022/11/24 02:43:21;;;;;;;;;;;;;;;1.53;79.25;99996.38;5053809;28;19917;-30
2022/11/24 02:45:46;;;;;;;;;;;;;;;1.53;79.18;99997.25;5058863;28;19927;-30
2022/11/24 02:48:12;;;;;;;;;;;;;;;1.55;78.99;99999.88;5030796;28;19964;-30
2022/11/24 02:50:37;;;;;;;;;;;;;;;1.56;79.12;100004.22;5062926;28;19925;-30
2022/11/24 02:53:03;;;;;;;;;;;;;;;1.55;79.14;100007.69;5070097;28;19924;-30
2022/11/24 02:55:28;;;;;;;;;;;;;;;1.57;79.17;100008.56;5050664;28;20389;-30
2022/11/24 02:57:53;;;;;;;;;;;;;;;1.58;79.09;100009.44;5051365;28;20380;-30
2022/11/24 03:00:18;;;;;;;;;;;;;;;1.60;78.95;100008.63;5062093;28;19921;-30
2022/11/24 03:02:44;;;;;;;;;;;;;;;1.60;79.03;100006.03;5053338;28;20366;-30
2022/11/24 03:05:10;;;;;;;;;;;;;;;1.60;78.96;100003.44;5024780;28;19917;-30
2022/11/24 03:07:36;;;;;;;;;;;;;;;1.62;79.03;100008.66;5059212;28;19924;-30
2022/11/24 03:10:01;;;;;;;;;;;;;;;1.63;79.19;100013.00;5041961;28;20380;-30
2022/11/24 03:12:26;;;;;;;;;;;;;;;1.63;79.16;100013.88;5049007;28;20725;-30
2022/11/24 03:14:51;;;;;;;;;;;;;;;1.64;79.31;100015.63;5040697;28;20280;-30
2022/11/24 03:17:16;;;;;;;;;;;;;;;1.65;79.25;100014.81;5047814;28;20015;-30
2022/11/24 03:19:42;;;;;;;;;;;;;;;1.66;78.99;100011.34;5055011;28;19917;-30
2022/11/24 03:22:07;;;;;;;;;;;;;;;1.67;79.27;100013.09;5058069;28;19925;-30
2022/11/24 03:24:32;;;;;;;;;;;;;;;1.67;79.08;100009.63;5056760;28;19917;-30
2022/11/24 03:26:57;;;;;;;;;;;;;;;1.68;79.23;100016.56;5050569;28;19927;-30
2022/11/24 03:29:22;;;;;;;;;;;;;;;1.67;79.14;100023.47;5053663;28;19971;-30
2022/11/24 03:31:48;;;;;;;;;;;;;;;1.67;79.25;100026.06;5033336;28;19917;-30
2022/11/24 03:34:13;;;;;;;;;;;;;;;1.69;79.36;100023.50;5050871;28;19932;-30
2022/11/24 03:36:38;;;;;;;;;;;;;;;1.70;79.22;100029.59;5058349;28;19931;-30
2022/11/24 03:39:03;;;;;;;;;;;;;;;1.72;79.07;100027.88;5050806;28;19921;-30
2022/11/24 03:41:29;;;;;;;;;;;;;;;1.72;79.17;100035.69;5055027;28;19923;-30
2022/11/24 03:43:54;;;;;;;;;;;;;;;1.71;79.23;100032.22;5058730;28;20384;-30
2022/11/24 03:46:19;;;;;;;;;;;;;;;1.72;79.17;100038.28;5052670;28;20355;-30
2022/11/24 03:48:44;;;;;;;;;;;;;;;1.71;79.33;100037.44;5049295;28;19960;-30
2022/11/24 03:51:10;;;;;;;;;;;;;;;1.72;79.35;100048.69;5039595;28;20395;-30
2022/11/24 03:53:35;;;;;;;;;;;;;;;1.71;79.21;100047.81;5053047;28;19956;-30
2022/11/24 03:56:00;;;;;;;;;;;;;;;1.69;79.47;100054.72;5041563;28;19966;-30
2022/11/24 03:58:26;;;;;;;;;;;;;;;1.71;79.38;100052.13;5052118;28;19925;-30
2022/11/24 04:00:52;;;;;;;;;;;;;;;1.71;79.67;100047.81;5057036;28;19921;-30
2022/11/24 04:03:18;;;;;;;;;;;;;;;1.70;79.63;100060.78;5055117;28;20058;-30
2022/11/24 04:05:43;;;;;;;;;;;;;;;1.72;79.54;100043.47;5025129;28;19924;-30
2022/11/24 04:08:08;;;;;;;;;;;;;;;1.73;79.53;100051.31;5048555;28;19917;-30
2022/11/24 04:10:35;;;;;;;;;;;;;;;1.71;79.81;100052.13;5057384;28;19925;-30
2022/11/24 04:13:00;;;;;;;;;;;;;;;1.73;79.65;100060.84;5050598;28;19966;-30
2022/11/24 04:15:26;;;;;;;;;;;;;;;1.75;79.79;100048.75;5050799;28;20023;-30
2022/11/24 04:17:52;;;;;;;;;;;;;;;1.76;79.65;100051.38;5059233;28;20013;-30
2022/11/24 04:20:17;;;;;;;;;;;;;;;1.79;79.67;100048.81;5039758;28;19932;-30
2022/11/24 04:22:43;;;;;;;;;;;;;;;1.79;79.74;100050.53;5056917;28;19917;-30
2022/11/24 04:25:08;;;;;;;;;;;;;;;1.75;79.82;100053.94;5040185;28;20019;-30
2022/11/24 04:27:34;;;;;;;;;;;;;;;1.77;79.68;100067.84;5051991;28;19916;-30
2022/11/24 04:29:59;;;;;;;;;;;;;;;1.75;79.72;100065.22;5038055;28;20432;-30
2022/11/24 04:32:24;;;;;;;;;;;;;;;1.75;79.67;100069.53;5054642;28;19925;-30
2022/11/24 04:34:49;;;;;;;;;;;;;;;1.75;79.58;100072.13;5053832;28;19920;-30
2022/11/24 04:37:15;;;;;;;;;;;;;;;1.77;79.63;100068.72;5060493;28;19928;-30
2022/11/24 04:39:40;;;;;;;;;;;;;;;1.77;79.60;100076.50;5061126;28;20363;-30
2022/11/24 04:42:05;;;;;;;;;;;;;;;1.76;79.33;100066.09;5047278;28;19921;-30
2022/11/24 04:44:30;;;;;;;;;;;;;;;1.76;79.77;100071.28;5047065;28;19924;-30
2022/11/24 04:46:55;;;;;;;;;;;;;;;1.75;79.80;100085.13;5049393;28;20414;-30
2022/11/24 04:49:21;;;;;;;;;;;;;;;1.76;79.44;100076.47;5056623;28;20398;-30
2022/11/24 04:51:46;;;;;;;;;;;;;;;1.76;79.69;100081.69;5050491;28;19916;-30
2022/11/24 04:54:12;;;;;;;;;;;;;;;1.77;79.77;100091.25;5049831;28;20034;-30
2022/11/24 04:56:37;;;;;;;;;;;;;;;1.76;79.57;100095.56;5045425;28;19921;-30
2022/11/24 04:59:03;;;;;;;;;;;;;;;1.79;79.63;100097.34;5051122;28;20451;-30
2022/11/24 05:01:28;;;;;;;;;;;;;;;1.79;79.74;100086.94;5048518;28;20020;-30
2022/11/24 05:03:53;;;;;;;;;;;;;;;1.81;79.55;100100.88;5047328;28;19917;-30
2022/11/24 05:06:19;;;;;;;;;;;;;;;1.83;79.64;100099.16;5049084;28;20050;-30
2022/11/24 05:08:51;;;;;;;;;;;;;;;1.83;79.72;100104.34;5053573;28;19925;-30
2022/11/24 05:11:16;;;;;;;;;;;;;;;1.85;79.66;100113.06;5050130;28;19943;-30
2022/11/24 05:13:42;;;;;;;;;;;;;;;1.86;79.74;100114.81;5064439;28;19979;-30
2022/11/24 05:16:07;;;;;;;;;;;;;;;1.89;79.62;100114.88;5044217;28;19966;-30
2022/11/24 05:18:32;;;;;;;;;;;;;;;1.91;80.01;100127.91;5048897;28;19921;-30
2022/11/24 05:20:57;;;;;;;;;;;;;;;1.94;79.70;100119.28;5056269;28;20410;-30
2022/11/24 05:23:23;;;;;;;;;;;;;;;1.94;80.00;100119.28;5052205;28;19917;-30
2022/11/24 05:25:48;;;;;;;;;;;;;;;1.96;79.79;100125.41;5048953;28;19971;-30
2022/11/24 05:28:13;;;;;;;;;;;;;;;1.97;79.94;100121.94;5044252;28;20284;-29
2022/11/24 05:30:39;;;;;;;;;;;;;;;1.97;80.00;100122.78;5043572;28;19925;-29
2022/11/24 05:33:05;;;;;;;;;;;;;;;1.96;79.78;100126.25;5044552;28;20355;-29
2022/11/24 05:35:30;;;;;;;;;;;;;;;1.97;79.69;100129.75;5024753;28;19916;-29
2022/11/24 05:37:56;;;;;;;;;;;;;;;1.97;79.83;100133.19;5042858;28;20326;-29
2022/11/24 05:40:22;;;;;;;;;;;;;;;1.97;79.66;100138.41;5042915;28;19921;-29
2022/11/24 05:42:47;;;;;;;;;;;;;;;1.97;79.70;100133.19;5062320;28;19948;-29
2022/11/24 05:45:13;;;;;;;;;;;;;;;1.97;79.78;100137.53;5053869;28;19916;-30
2022/11/24 05:47:39;;;;;;;;;;;;;;;1.97;79.75;100142.75;5032105;28;19925;-30
2022/11/24 05:50:04;;;;;;;;;;;;;;;1.98;79.65;100147.09;5045722;28;19921;-30
2022/11/24 05:52:29;;;;;;;;;;;;;;;1.98;79.68;100136.69;5049455;28;20402;-30
2022/11/24 05:54:55;;;;;;;;;;;;;;;2.00;79.72;100135.84;5054315;28;20264;-30
2022/11/24 05:57:20;;;;;;;;;;;;;;;2.01;79.71;100139.34;5041833;28;19927;-30
2022/11/24 05:59:45;;;;;;;;;;;;;;;2.00;79.72;100138.47;5044172;28;19925;-30
2022/11/24 06:02:10;;;;;;;;;;;;;;;2.01;79.88;100145.44;5050158;28;19949;-30
2022/11/24 06:04:36;;;;;;;;;;;;;;;2.02;79.72;100147.19;5049458;28;20529;-30
2022/11/24 06:07:01;;;;;;;;;;;;;;;2.03;79.90;100148.03;5046912;28;19936;-30
2022/11/24 06:09:26;;;;;;;;;;;;;;;2.04;79.56;100144.59;5030594;28;19917;-30
2022/11/24 06:11:52;;;;;;;;;;;;;;;2.05;79.99;100146.34;5062320;28;20291;-30
2022/11/24 06:14:17;;;;;;;;;;;;;;;2.05;79.71;100157.66;5051357;28;19944;-30
2022/11/24 06:16:42;;;;;;;;;;;;;;;2.07;79.61;100160.28;5049964;28;19928;-30
2022/11/24 06:19:08;;;;;;;;;;;;;;;2.07;79.79;100154.19;5050514;28;19924;-30
2022/11/24 06:21:33;;;;;;;;;;;;;;;2.09;79.67;100158.56;5048320;28;19919;-30
2022/11/24 06:23:58;;;;;;;;;;;;;;;2.09;79.85;100168.97;5051036;28;20004;-30
2022/11/24 06:26:24;;;;;;;;;;;;;;;2.08;79.83;100177.63;5061888;28;19999;-30
2022/11/24 06:28:49;;;;;;;;;;;;;;;2.08;79.74;100172.44;5059992;28;19959;-30
2022/11/24 06:31:14;;;;;;;;;;;;;;;2.08;79.97;100177.63;5046648;28;19921;-30
2022/11/24 06:33:39;;;;;;;;;;;;;;;2.08;79.86;100177.63;5040758;28;19932;-30
2022/11/24 06:36:06;;;;;;;;;;;;;;;2.11;79.66;100185.50;5034979;28;19916;-30
2022/11/24 06:38:31;;;;;;;;;;;;;;;2.11;79.82;100177.69;5044846;28;19959;-30
2022/11/24 06:41:00;;;;;;;;;;;;;;;2.11;79.90;100180.28;5055498;28;19955;-30
2022/11/24 06:43:29;;;;;;;;;;;;;;;2.12;79.75;100179.44;5032102;28;20295;-30
2022/11/24 06:45:54;;;;;;;;;;;;;;;2.13;79.88;100182.91;5053813;28;19921;-30
2022/11/24 06:48:19;;;;;;;;;;;;;;;2.13;79.71;100186.38;5057239;28;20041;-30
2022/11/24 06:50:45;;;;;;;;;;;;;;;2.13;79.43;100185.53;5051780;28;19924;-30
2022/11/24 06:53:11;;;;;;;;;;;;;;;2.14;79.49;100188.13;5052518;28;19928;-30
2022/11/24 06:55:36;;;;;;;;;;;;;;;2.15;79.83;100195.09;5056252;28;19959;-30
2022/11/24 06:58:02;;;;;;;;;;;;;;;2.16;79.58;100196.84;5035021;28;19967;-30
2022/11/24 07:00:28;;;;;;;;;;;;;;;2.18;79.76;100202.09;5052144;28;19917;-30
2022/11/24 07:02:53;;;;;;;;;;;;;;;2.17;79.66;100202.94;5052489;28;19940;-30
2022/11/24 07:05:18;;;;;;;;;;;;;;;2.17;79.94;100209.00;5068464;28;20358;-30
2022/11/24 07:07:43;;;;;;;;;;;;;;;2.17;79.78;100206.41;5064614;28;19912;-30
2022/11/24 07:10:08;;;;;;;;;;;;;;;2.18;79.69;100204.69;5019700;28;19924;-31
2022/11/24 07:31:33;;;;;;;;;;;;;;;2.17;80.65;100218.56;6192071;22;19916;-34
2022/11/24 07:33:59;;;;;;;;;;;;;;;2.23;80.23;100217.78;6193872;23;19918;-34
2022/11/24 07:36:24;;;;;;;;;;;;;;;2.25;80.31;100227.38;6167624;23;19939;-34
2022/11/24 07:38:52;;;;;;;;;;;;;;;2.28;80.06;100234.34;6193751;23;19908;-32
2022/11/24 07:41:18;;;;;;;;;;;;;;;2.29;79.96;100241.31;6189290;23;19912;-32
2022/11/24 07:43:44;;;;;;;;;;;;;;;2.30;80.19;100241.31;6191565;23;20354;-32
2022/11/24 07:46:10;;;;;;;;;;;;;;;2.31;79.88;100244.81;6190897;23;19911;-32
2022/11/24 07:48:35;;;;;;;;;;;;;;;2.33;80.02;100248.31;6192515;23;20350;-32
2022/11/24 07:51:01;;;;;;;;;;;;;;;2.34;80.01;100247.47;6164986;23;19908;-32
2022/11/24 07:53:27;;;;;;;;;;;;;;;2.36;79.83;100245.75;6191595;23;19916;-32
2022/11/24 07:55:53;;;;;;;;;;;;;;;2.37;80.03;100250.13;6188628;23;19908;-32
2022/11/24 07:58:19;;;;;;;;;;;;;;;2.38;80.16;100251.88;6191313;23;19916;-32
2022/11/24 08:00:44;;;;;;;;;;;;;;;2.40;79.83;100249.31;6191980;23;19970;-32
2022/11/24 08:03:09;;;;;;;;;;;;;;;2.40;80.28;100247.56;6193045;23;19918;-33
2022/11/24 08:05:35;;;;;;;;;;;;;;;2.42;80.12;100252.81;6192605;23;19915;-33
2022/11/24 08:08:00;;;;;;;;;;;;;;;2.43;80.26;100257.16;6193274;23;19959;-33
2022/11/24 08:10:25;;;;;;;;;;;;;;;2.44;80.12;100248.53;6192656;23;20327;-33
2022/11/24 08:12:51;;;;;;;;;;;;;;;2.46;79.92;100253.75;6192132;23;19919;-33
2022/11/24 08:15:16;;;;;;;;;;;;;;;2.47;79.98;100260.72;6190887;23;19908;-33
2022/11/24 08:17:41;;;;;;;;;;;;;;;2.50;80.09;100263.38;6194757;23;20271;-33
2022/11/24 08:20:07;;;;;;;;;;;;;;;2.50;80.17;100261.63;6193453;23;19909;-33
2022/11/24 08:22:32;;;;;;;;;;;;;;;2.52;79.88;100269.47;6193424;23;19912;-33
2022/11/24 08:24:58;;;;;;;;;;;;;;;2.53;80.15;100268.59;6194050;23;20143;-33
2022/11/24 08:27:23;;;;;;;;;;;;;;;2.54;80.10;100260.81;6191155;23;20379;-33
2022/11/24 08:29:48;;;;;;;;;;;;;;;2.56;79.96;100263.47;6198120;23;19912;-34
2022/11/24 08:32:15;;;;;;;;;;;;;;;2.57;80.26;100265.22;6214817;23;19961;-33
2022/11/24 08:34:40;;;;;;;;;;;;;;;2.59;80.02;100273.94;6187191;23;19985;-33
2022/11/24 08:37:05;;;;;;;;;;;;;;;2.61;79.80;100266.16;6215325;23;19947;-33
2022/11/24 08:39:31;;;;;;;;;;;;;;;2.61;79.96;100264.44;6215990;23;19908;-33
2022/11/24 08:41:56;;;;;;;;;;;;;;;2.65;79.62;100270.56;6163262;23;19912;-33
2022/11/24 08:44:21;;;;;;;;;;;;;;;2.65;79.73;100267.94;6188963;23;20232;-33
2022/11/24 08:46:47;;;;;;;;;;;;;;;2.67;79.97;100267.13;6188695;23;19915;-33
2022/11/24 08:49:15;;;;;;;;;;;;;;;2.69;80.05;100280.16;6187319;23;19911;-33
2022/11/24 08:51:40;;;;;;;;;;;;;;;2.71;79.90;100272.38;6188872;23;19982;-33
2022/11/24 08:54:08;;;;;;;;;;;;;;;2.73;79.70;100275.91;6215689;23;19939;-33
2022/11/24 08:56:33;;;;;;;;;;;;;;;2.74;79.98;100278.53;6215335;23;19986;-33
2022/11/24 08:58:58;;;;;;;;;;;;;;;2.77;79.86;100278.56;6188542;23;19939;-33
2022/11/24 09:01:24;;;;;;;;;;;;;;;2.80;79.99;100282.97;6215488;23;19943;-33
2022/11/24 09:03:49;;;;;;;;;;;;;;;2.82;80.36;100286.47;6189003;23;20300;-34
2022/11/24 09:06:15;;;;;;;;;;;;;;;2.84;79.92;100282.16;6215609;23;19915;-34
2022/11/24 09:08:40;;;;;;;;;;;;;;;2.86;79.98;100283.06;6189027;23;19912;-34
2022/11/24 09:11:06;;;;;;;;;;;;;;;2.89;80.41;100292.63;6188664;23;20264;-34
2022/11/24 09:13:32;;;;;;;;;;;;;;;2.92;80.23;100297.91;6215865;23;19908;-34
2022/11/24 09:16:07;;;;;;;;;;;;;;;2.93;79.88;100300.53;6216200;23;19914;-34
2022/11/24 09:18:33;;;;;;;;;;;;;;;2.95;80.16;100301.47;6189353;23;19938;-34
2022/11/24 09:21:08;;;;;;;;;;;;;;;2.98;79.99;100297.13;6189650;23;19912;-34
2022/11/24 09:23:34;;;;;;;;;;;;;;;3.00;80.29;100296.28;6189058;23;19918;-34
2022/11/24 09:26:07;;;;;;;;;;;;;;;3.03;80.15;100308.53;6215592;23;19915;-34
2022/11/24 09:28:32;;;;;;;;;;;;;;;3.04;80.19;100308.53;6215526;23;19908;-35
2022/11/24 09:31:04;;;;;;;;;;;;;;;3.08;80.32;100312.06;6188196;23;20005;-34
2022/11/24 09:33:30;;;;;;;;;;;;;;;3.10;80.17;100310.34;6215484;23;19947;-34
2022/11/24 09:35:55;;;;;;;;;;;;;;;3.12;80.30;100316.47;6214821;23;19908;-34
2022/11/24 09:38:21;;;;;;;;;;;;;;;3.15;80.27;100316.53;6215067;23;19936;-34
2022/11/24 09:40:47;;;;;;;;;;;;;;;3.17;80.37;100313.94;6214330;23;19908;-34
2022/11/24 09:43:15;;;;;;;;;;;;;;;3.20;80.31;100319.19;6214427;23;19919;-34
2022/11/24 09:45:43;;;;;;;;;;;;;;;3.21;79.92;100316.59;6215467;23;19908;-34
2022/11/24 09:48:10;;;;;;;;;;;;;;;3.23;79.93;100313.16;6215279;23;19916;-34
2022/11/24 09:50:36;;;;;;;;;;;;;;;3.26;80.30;100313.19;6214813;23;19962;-34
2022/11/24 09:53:04;;;;;;;;;;;;;;;3.29;80.20;100315.84;6215060;23;19907;-34
2022/11/24 09:55:34;;;;;;;;;;;;;;;3.31;80.66;100321.97;6214565;23;19987;-34
2022/11/24 09:58:18;;;;;;;;;;;;;;;3.34;80.15;100319.41;6215126;23;19962;-34
2022/11/24 10:00:43;;;;;;;;;;;;;;;3.37;80.46;100326.41;6215509;23;19915;-34
2022/11/24 10:03:14;;;;;;;;;;;;;;;3.40;80.16;100332.53;6214877;23;19912;-33
2022/11/24 10:05:39;;;;;;;;;;;;;;;3.42;80.72;100328.22;6214537;23;19908;-34
2022/11/24 10:08:13;;;;;;;;;;;;;;;3.46;80.31;100332.63;6188008;23;19908;-34
2022/11/24 10:10:51;;;;;;;;;;;;;;;3.49;80.46;100338.72;6186777;23;20327;-33
2022/11/24 10:13:19;;;;;;;;;;;;;;;3.53;80.78;100343.16;6214389;23;19908;-33
2022/11/24 10:16:03;;;;;;;;;;;;;;;3.55;80.37;100341.44;6188006;23;19991;-34
2022/11/24 10:18:34;;;;;;;;;;;;;;;3.57;80.49;100335.38;6214447;23;19919;-34
2022/11/24 10:21:05;;;;;;;;;;;;;;;3.62;80.82;100332.84;6214499;23;19974;-34
2022/11/24 10:23:40;;;;;;;;;;;;;;;3.64;80.44;100336.38;6214210;23;19921;-33
2022/11/24 10:26:23;;;;;;;;;;;;;;;3.68;80.88;100342.50;6214670;23;19908;-34
2022/11/24 10:28:52;;;;;;;;;;;;;;;3.71;80.65;100342.53;6214988;23;19939;-34
2022/11/24 10:31:22;;;;;;;;;;;;;;;3.74;80.67;100336.47;6187202;23;19951;-33
2022/11/24 10:33:47;;;;;;;;;;;;;;;3.76;80.78;100340.00;6162738;23;19935;-34
2022/11/24 10:36:15;;;;;;;;;;;;;;;3.79;81.16;100342.63;6214772;23;19978;-33
2022/11/24 10:39:01;;;;;;;;;;;;;;;3.83;81.04;100344.41;6162911;23;19954;-33
2022/11/24 10:41:32;;;;;;;;;;;;;;;3.87;81.42;100342.75;6184480;23;20426;-33
2022/11/24 10:43:57;;;;;;;;;;;;;;;3.88;81.09;100342.75;6213708;23;19911;-34
2022/11/24 10:46:24;;;;;;;;;;;;;;;3.92;81.45;100339.34;6186790;23;20282;-33
2022/11/24 10:48:55;;;;;;;;;;;;;;;3.98;81.89;100335.94;6162666;23;19908;-34
2022/11/24 10:51:27;;;;;;;;;;;;;;;4.03;81.59;100336.00;6161875;23;20323;-33
2022/11/24 10:53:52;;;;;;;;;;;;;;;4.07;81.81;100330.81;6214236;23;19969;-34
2022/11/24 10:56:18;;;;;;;;;;;;;;;4.15;82.66;100332.63;6185936;23;19939;-33
2022/11/24 10:58:43;;;;;;;;;;;;;;;4.20;82.84;100330.97;6213805;23;19908;-33
2022/11/24 11:01:11;;;;;;;;;;;;;;;4.24;82.16;100333.63;6212877;23;19916;-33
2022/11/24 11:03:43;;;;;;;;;;;;;;;4.30;82.47;100332.81;6214681;23;19982;-33
2022/11/24 11:06:10;;;;;;;;;;;;;;;4.36;83.11;100342.44;6187929;23;20242;-34
2022/11/24 11:08:37;;;;;;;;;;;;;;;4.40;83.41;100339.00;6191526;23;19908;-32
2022/11/24 11:11:26;;;;;;;;;;;;;;;4.45;82.98;100336.47;6192249;23;19907;-31
2022/11/24 11:14:01;;;;;;;;;;;;;;;4.52;83.26;100346.13;6197653;23;19919;-31
2022/11/24 11:16:40;;;;;;;;;;;;;;;4.59;83.60;100355.78;6215159;23;19951;-31
2022/11/24 11:19:25;;;;;;;;;;;;;;;4.66;83.59;100341.03;6216064;23;19908;-31
2022/11/24 11:22:13;;;;;;;;;;;;;;;4.72;84.16;100342.81;6215134;23;19990;-31
2022/11/24 11:24:42;;;;;;;;;;;;;;;4.80;84.64;100348.13;6196338;23;19912;-31
2022/11/24 11:27:18;;;;;;;;;;;;;;;4.85;85.31;100341.22;6188838;23;20155;-33
2022/11/24 11:29:43;;;;;;;;;;;;;;;4.88;84.22;100341.25;6213898;23;19986;-32
2022/11/24 11:32:16;;;;;;;;;;;;;;;4.92;84.24;100337.78;6213751;23;19935;-32
2022/11/24 11:34:42;;;;;;;;;;;;;;;4.98;83.68;100342.19;6216817;23;20091;-32
2022/11/24 11:37:08;;;;;;;;;;;;;;;5.03;84.24;100334.41;6215741;23;19908;-31
2022/11/24 11:39:33;;;;;;;;;;;;;;;5.09;84.50;100343.16;6213989;23;20331;-32
2022/11/24 11:42:01;;;;;;;;;;;;;;;5.14;84.72;100351.91;6213132;23;19990;-32
2022/11/24 11:44:35;;;;;;;;;;;;;;;5.19;84.10;100346.72;6187719;23;20219;-33
2022/11/24 11:47:03;;;;;;;;;;;;;;;5.24;84.35;100350.22;6213733;23;19995;-33
2022/11/24 11:49:29;;;;;;;;;;;;;;;5.30;84.82;100343.31;6187744;23;19998;-33
2022/11/24 11:51:54;;;;;;;;;;;;;;;5.34;84.33;100353.78;6213452;23;19942;-33
2022/11/24 11:54:19;;;;;;;;;;;;;;;5.38;83.93;100354.72;6213467;23;19915;-32
2022/11/24 11:56:44;;;;;;;;;;;;;;;5.42;84.23;100353.84;6215062;23;19942;-32
2022/11/24 11:59:16;;;;;;;;;;;;;;;5.48;84.64;100348.69;6187417;23;19915;-32
2022/11/24 12:01:49;;;;;;;;;;;;;;;5.51;83.68;100353.91;6186972;23;19935;-31
2022/11/24 12:04:20;;;;;;;;;;;;;;;5.56;84.47;100367.03;6160407;23;19908;-31
2022/11/24 12:06:54;;;;;;;;;;;;;;;5.60;83.81;100365.31;6213038;23;19934;-33
2022/11/24 12:09:40;;;;;;;;;;;;;;;5.64;84.31;100354.88;6215784;23;20349;-31
2022/11/24 12:12:24;;;;;;;;;;;;;;;5.71;84.21;100357.53;6189488;23;19904;-33
2022/11/24 12:14:49;;;;;;;;;;;;;;;5.74;84.21;100360.19;6215668;23;19920;-33
2022/11/24 12:17:33;;;;;;;;;;;;;;;5.77;84.56;100366.28;6188357;23;19915;-33
2022/11/24 12:20:01;;;;;;;;;;;;;;;5.82;84.31;100373.28;6209350;23;19912;-32
2022/11/24 12:22:34;;;;;;;;;;;;;;;5.85;83.99;100370.69;6183646;23;19931;-31
2022/11/24 12:25:14;;;;;;;;;;;;;;;5.89;84.00;100369.84;6211140;23;19908;-32
2022/11/24 12:27:49;;;;;;;;;;;;;;;5.93;84.42;100379.47;6210555;23;19907;-32
2022/11/24 12:30:17;;;;;;;;;;;;;;;5.96;84.39;100370.75;6211545;23;19915;-32
2022/11/24 12:32:46;;;;;;;;;;;;;;;6.00;84.26;100372.53;6184965;23;19947;-32
2022/11/24 12:35:17;;;;;;;;;;;;;;;6.05;84.47;100369.94;6184439;23;20331;-32
2022/11/24 12:37:42;;;;;;;;;;;;;;;6.08;84.78;100378.72;6210933;23;20394;-32
2022/11/24 12:40:07;;;;;;;;;;;;;;;6.11;85.13;100375.22;6185177;23;19943;-32
2022/11/24 12:42:33;;;;;;;;;;;;;;;6.15;85.07;100376.97;6211227;23;19916;-31
2022/11/24 12:45:07;;;;;;;;;;;;;;;6.18;85.11;100382.25;6213502;23;19919;-32
2022/11/24 12:47:59;;;;;;;;;;;;;;;6.21;84.80;100381.38;6189097;23;19908;-32
2022/11/24 12:50:25;;;;;;;;;;;;;;;6.24;85.10;100379.63;6189020;23;19911;-32
2022/11/24 12:52:59;;;;;;;;;;;;;;;6.28;85.08;100384.00;6162164;23;19908;-32
2022/11/24 12:55:24;;;;;;;;;;;;;;;6.31;85.12;100392.75;6213666;23;19914;-32
2022/11/24 12:57:53;;;;;;;;;;;;;;;6.35;84.82;100399.75;6214996;23;19939;-32
2022/11/24 13:00:22;;;;;;;;;;;;;;;6.38;85.24;100397.16;6188055;23;19974;-31
2022/11/24 13:02:59;;;;;;;;;;;;;;;6.41;85.54;100403.28;6186958;23;19927;-32
2022/11/24 13:05:26;;;;;;;;;;;;;;;6.44;85.28;100401.53;6213236;23;20335;-31
2022/11/24 13:08:01;;;;;;;;;;;;;;;6.46;85.37;100408.53;6162829;23;20406;-32